Data for 08/13/2016

Time Sea-Level Adjusted Pressure Absolute Pressure Temperature Relative Humidity Dew Point   
(mb) (inHg) (mb) (inHg) (C) (F) (%) (C) (F)
00:05 1025 30.27 854 25.22 16.5 61.6 48 5.6 42.2
00:10 1025 30.27 854 25.22 16.4 61.6 49 5.7 42.3
00:15 1025 30.27 854 25.22 16.3 61.4 50 5.9 42.6
00:20 1025 30.27 854 25.22 16.2 61.2 50 5.9 42.6
00:25 1025 30.27 855 25.25 16.2 61.1 51 6 42.9
00:30 1025 30.27 854 25.22 16.1 61 51 6.1 43.1
00:35 1025 30.27 854 25.22 16 60.8 52 6.2 43.1
00:40 1025 30.27 854 25.22 16 60.7 52 6.3 43.3
00:45 1025 30.27 854 25.22 15.9 60.6 53 6.3 43.4
00:50 1025 30.27 854 25.22 15.9 60.5 53 6.4 43.5
00:55 1025 30.27 854 25.22 15.8 60.5 53 6.4 43.5
01:00 1025 30.27 854 25.22 15.8 60.4 54 6.5 43.6
01:05 1025 30.27 854 25.22 15.7 60.2 54 6.6 43.8
01:10 1025 30.27 854 25.22 15.5 59.9 55 6.5 43.7
01:15 1025 30.27 854 25.22 15.4 59.8 55 6.5 43.7
01:20 1025 30.27 854 25.22 15.3 59.5 55 6.5 43.7
01:25 1025 30.27 854 25.22 15.3 59.5 55 6.4 43.6
01:30 1025 30.27 854 25.22 15.4 59.7 55 6.5 43.8
01:35 1025 30.27 854 25.22 15.3 59.6 55 6.5 43.8
01:40 1025 30.27 854 25.22 15.2 59.4 56 6.6 43.8
01:45 1025 30.27 854 25.22 15.1 59.2 56 6.5 43.8
01:50 1025 30.27 854 25.22 15 59.1 57 6.6 43.9
01:55 1025 30.27 854 25.22 15 58.9 57 6.7 44
02:00 1025 30.27 854 25.22 14.8 58.7 58 6.6 43.9
02:05 1025 30.27 854 25.22 14.7 58.5 58 6.7 44
02:10 1025 30.27 854 25.22 14.5 58.1 59 6.7 44
02:15 1025 30.27 854 25.22 14.4 57.8 60 6.7 44.1
02:20 1025 30.27 854 25.22 14.2 57.5 61 6.8 44.2
02:25 1025 30.27 854 25.22 13.7 56.7 63 6.8 44.2
02:30 1025 30.27 854 25.22 13 55.4 64 6.5 43.7
02:35 1025 30.27 854 25.22 12.8 55 65 6.4 43.6
02:40 1025 30.27 854 25.22 12.7 54.9 65 6.4 43.5
02:45 1025 30.27 854 25.22 12.7 54.8 65 6.2 43.2
02:50 1025 30.27 854 25.22 12.7 54.8 64 6.2 43.1
02:55 1025 30.27 854 25.22 12.6 54.6 64 5.9 42.7
03:00 1025 30.27 854 25.22 12.6 54.8 63 5.8 42.4
03:05 1025 30.27 854 25.22 12.6 54.7 63 5.8 42.5
03:10 1025 30.27 854 25.22 12.4 54.3 64 5.9 42.6
03:15 1025 30.27 854 25.22 12.3 54.2 64 5.8 42.5
03:20 1025 30.27 854 25.22 12.2 54 65 5.9 42.6
03:25 1025 30.27 854 25.22 12.1 53.8 65 5.7 42.3
03:30 1025 30.27 854 25.22 12.1 53.8 63 5.5 41.8
03:35 1025 30.27 854 25.22 12.2 53.9 64 5.7 42.2
03:40 1025 30.27 854 25.22 12.1 53.7 64 5.6 42.1
03:45 1025 30.27 854 25.22 11.9 53.4 65 5.6 42.1
03:50 1025 30.27 854 25.22 11.8 53.2 66 5.7 42.2
03:55 1025 30.27 854 25.22 11.6 52.9 67 5.7 42.3
04:00 1025 30.27 854 25.22 11.4 52.5 68 5.7 42.3
04:05 1025 30.27 854 25.22 11.4 52.5 68 5.8 42.4
04:10 1025 30.27 854 25.22 11.6 52.8 68 5.8 42.5
04:15 1025 30.27 854 25.22 11.5 52.6 68 5.8 42.4
04:20 1025 30.27 854 25.22 11.3 52.4 68 5.8 42.4
04:25 1025 30.27 854 25.22 11.2 52.2 68 5.7 42.2
04:30 1025 30.27 854 25.22 11.2 52.1 69 5.6 42.1
04:35 1025 30.27 854 25.22 11.1 51.9 69 5.7 42.2
04:40 1025 30.27 854 25.22 11.1 52 69 5.7 42.2
04:45 1025 30.27 854 25.22 11.1 52.1 69 5.7 42.2
04:50 1025 30.27 854 25.22 11.3 52.3 69 5.7 42.3
04:55 1025 30.27 854 25.22 11.3 52.3 69 5.7 42.3
05:00 1025 30.27 854 25.22 11.2 52.2 69 5.8 42.4
05:05 1025 30.27 854 25.22 11.2 52.2 69 5.8 42.4
05:10 1025 30.27 854 25.22 11.2 52.1 69 5.7 42.2
05:15 1025 30.27 854 25.22 11.2 52.2 69 5.7 42.3
05:20 1025 30.27 854 25.22 11.2 52.2 69 5.7 42.3
05:25 1025 30.27 854 25.22 11.3 52.4 69 5.8 42.4
05:30 1025 30.27 854 25.22 11.4 52.5 69 5.9 42.6
05:35 1025 30.27 854 25.22 11.4 52.5 69 5.8 42.5
05:40 1025 30.27 854 25.22 11.3 52.3 69 5.8 42.5
05:45 1025 30.27 854 25.22 11.2 52.1 69 5.7 42.3
05:50 1025 30.27 854 25.22 11.3 52.3 68 5.7 42.3
05:55 1025 30.27 854 25.22 11.5 52.7 68 5.8 42.4
06:00 1025 30.27 854 25.22 11.8 53.2 67 5.9 42.6
06:05 1025 30.27 854 25.22 12 53.6 66 6 42.7
06:10 1025 30.27 854 25.22 12.2 54 65 6 42.8
06:15 1025 30.27 854 25.22 12.5 54.5 64 6 42.8
06:20 1025 30.27 854 25.22 12.6 54.6 64 6.1 42.9
06:25 1025 30.27 854 25.22 12.6 54.7 64 6.1 43
06:30 1025 30.27 854 25.22 12.8 55.1 64 6.1 43.1
06:35 1025 30.27 854 25.22 13 55.4 63 6.1 43
06:40 1025 30.27 854 25.22 13.4 56.1 62 6.2 43.2
06:45 1025 30.27 854 25.22 13.6 56.5 61 6.4 43.5
06:50 1025 30.27 854 25.22 13.8 56.9 61 6.4 43.6
06:55 1025 30.27 854 25.22 14 57.3 60 6.5 43.7
07:00 1025 30.27 854 25.22 14.1 57.5 60 6.5 43.7
07:05 1025 30.27 854 25.22 14.2 57.6 59 6.5 43.6
07:10 1025 30.27 854 25.22 14.6 58.3 58 6.6 43.9
07:15 1025 30.27 854 25.22 15 59 58 6.8 44.2
07:20 1025 30.27 854 25.22 15.2 59.3 57 6.7 44.1
07:25 1025 30.27 854 25.22 15.5 60 55 6.6 43.9
07:30 1025 30.27 854 25.22 15.9 60.5 54 6.8 44.2
07:35 1025 30.27 854 25.22 15.8 60.5 55 7 44.6
07:40 1025 30.27 854 25.22 16 60.8 53 6.5 43.8
07:45 1025 30.27 854 25.22 16.1 61 52 6.4 43.6
07:50 1025 30.27 854 25.22 16.4 61.6 52 6.6 43.8
07:55 1025 30.27 854 25.22 16.7 62 51 6.6 43.9
08:00 1025 30.27 854 25.22 17.3 63.2 48 6.4 43.4
08:05 1025 30.27 854 25.22 17.5 63.5 49 6.7 44.1
08:10 1025 30.27 854 25.22 18 64.3 46 6.3 43.3
08:15 1025 30.27 854 25.22 18.5 65.3 46 6.7 44.1
08:20 1025 30.27 854 25.22 18.5 65.2 45 6.4 43.5
08:25 1025 30.27 854 25.22 18.9 66 46 7.2 44.9
08:30 1025 30.27 854 25.22 18.4 65.1 46 6.7 44
08:35 1025 30.27 854 25.22 18.4 65.1 46 6.6 44
08:40 1025 30.27 854 25.22 18 64.5 47 6.7 44.1
08:45 1025 30.27 854 25.22 18.3 65 45 6.3 43.4
08:50 1025 30.27 854 25.22 19.2 66.5 44 6.8 44.3
08:55 1025 30.27 854 25.22 19.2 66.6 42 6.1 43
09:00 1025 30.27 854 25.22 20.1 68.1 40 6.3 43.3
09:05 1025 30.27 854 25.22 20.2 68.3 42 7 44.5
09:10 1025 30.27 854 25.22 19.4 66.8 43 6.5 43.7
09:15 1025 30.27 854 25.22 20 68.1 39 5.8 42.4
09:20 1025 30.27 854 25.22 20.6 69.1 40 6.6 43.8
09:25 1025 30.27 854 25.22 20 68.1 41 6.6 43.9
09:30 1025 30.27 854 25.22 20.3 68.5 39 6.2 43.2
09:35 1025 30.27 854 25.22 21 69.8 37 5.8 42.4
09:40 1025 30.27 854 25.22 21.3 70.3 36 6 42.7
09:45 1025 30.27 854 25.22 21.4 70.5 35 5.6 42.1
09:50 1025 30.27 854 25.22 21.6 71 35 5.8 42.5
09:55 1025 30.27 854 25.22 21.7 71.1 37 6.5 43.8
10:00 1025 30.27 854 25.22 21.6 70.8 34 5.3 41.5
10:05 1025 30.27 854 25.22 22.1 71.8 36 6.3 43.4
10:10 1025 30.27 854 25.22 22.3 72.1 33 5.4 41.6
10:15 1025 30.27 854 25.22 22.5 72.6 33 5.7 42.3
10:20 1025 30.27 854 25.22 22.5 72.5 33 5.6 42.2
10:25 1025 30.27 854 25.22 22.3 72.1 34 5.9 42.7
10:30 1025 30.27 854 25.22 22.4 72.4 33 5.4 41.8
10:35 1025 30.27 854 25.22 22.1 71.8 33 5.3 41.6
10:40 1025 30.27 854 25.22 22.8 73 32 5.4 41.7
10:45 1025 30.27 854 25.22 23.1 73.6 32 5.8 42.4
10:50 1025 30.27 854 25.22 22.5 72.5 34 6 42.8
10:55 1024 30.24 854 25.22 22.2 72 31 4.4 39.9
11:00 1024 30.24 854 25.22 22 71.7 32 4.7 40.4
11:05 1024 30.24 854 25.22 22.8 73.1 29 4.2 39.5
11:10 1024 30.24 853 25.19 24 75.1 28 4.5 40.1
11:15 1024 30.24 853 25.19 24.5 76 28 4.9 40.7
11:20 1024 30.24 853 25.19 24.3 75.7 29 5.1 41.2
11:25 1024 30.24 853 25.19 24 75.3 27 4.4 39.8
11:30 1024 30.24 853 25.19 24.5 76.1 27 4.5 40.2
11:35 1024 30.24 853 25.19 24 75.2 27 3.8 38.9
11:40 1024 30.24 853 25.19 24.9 76.9 25 3.8 38.9
11:45 1024 30.24 853 25.19 25.2 77.4 25 3.9 39
11:50 1024 30.24 853 25.19 25.3 77.6 25 4 39.1
11:55 1024 30.24 853 25.19 25.4 77.6 23 2.7 36.9
12:00 1024 30.24 853 25.19 24.7 76.4 25 3.7 38.7
12:05 1024 30.24 853 25.19 24.2 75.5 23 2.2 35.9
12:10 1024 30.24 853 25.19 24.9 76.8 22 1.9 35.4
12:15 1023 30.21 853 25.19 26 78.8 21 2.1 35.8
12:20 1023 30.21 853 25.19 25.7 78.3 21 1.8 35.2
12:25 1023 30.21 852 25.16 26.1 79 18 0.3 32.5
12:30 1023 30.21 852 25.16 26.7 80.1 18 0.8 33.4
12:35 1023 30.21 852 25.16 26.5 79.7 19 1.6 34.8
12:40 1023 30.21 852 25.16 26.7 80 19 1.2 34.2
12:45 1023 30.21 852 25.16 26.7 80 19 1.6 34.9
12:50 1023 30.21 852 25.16 26.6 79.9 20 2 35.5
12:55 1023 30.21 852 25.16 26.4 79.5 20 1.7 35.1
13:00 1023 30.21 852 25.16 26.6 79.9 19 1.6 34.8
13:05 1023 30.21 852 25.16 26.1 79 21 2.2 35.9
13:10 1023 30.21 852 25.16 25.8 78.4 21 1.8 35.2
13:15 1023 30.21 852 25.16 26.6 79.9 20 2.2 35.9
13:20 1023 30.21 852 25.16 26.8 80.2 20 2.5 36.4
13:25 1023 30.21 852 25.16 26.4 79.5 21 2.4 36.4
13:30 1023 30.21 852 25.16 26.6 79.9 20 1.8 35.2
13:35 1023 30.21 852 25.16 27.1 80.8 19 2 35.7
13:40 1023 30.21 852 25.16 27.1 80.8 20 2.3 36.1
13:45 1023 30.21 852 25.16 26.2 79.2 20 1.7 35.1
13:50 1022 30.18 852 25.16 26.8 80.2 19 1.7 35.1
13:55 1022 30.18 852 25.16 26.4 79.6 21 2.3 36.2
14:00 1022 30.18 852 25.16 25.6 78.1 20 1.3 34.4
14:05 1022 30.18 852 25.16 26.6 79.9 19 1.4 34.5
14:10 1022 30.18 852 25.16 27 80.6 18 1.2 34.2
14:15 1022 30.18 852 25.16 26.9 80.5 19 1.7 35
14:20 1022 30.18 851 25.13 25.9 78.5 21 2.3 36.1
14:25 1022 30.18 851 25.13 25.7 78.2 21 2.2 36
14:30 1022 30.18 851 25.13 25.7 78.3 21 2.1 35.9
14:35 1022 30.18 851 25.13 26.1 78.9 23 3.4 38.1
14:40 1022 30.18 851 25.13 26.7 80 21 2.6 36.6
14:45 1022 30.18 851 25.13 27 80.6 19 1.7 35.1
14:50 1022 30.18 851 25.13 26.9 80.3 20 2.3 36.2
14:55 1022 30.18 851 25.13 27.2 80.9 20 2.3 36.1
15:00 1022 30.18 851 25.13 27.4 81.2 19 2.3 36.2
15:05 1022 30.18 851 25.13 27.2 81 20 2.6 36.6
15:10 1022 30.18 851 25.13 26.8 80.2 19 1.8 35.2
15:15 1022 30.18 851 25.13 27.8 82 19 2.2 36
15:20 1022 30.18 851 25.13 27.1 80.8 20 2.2 35.9
15:25 1022 30.18 851 25.13 27.7 81.8 20 2.7 36.9
15:30 1022 30.18 851 25.13 27.3 81.2 20 2.5 36.5
15:35 1022 30.18 851 25.13 27.1 80.8 20 2.4 36.3
15:40 1022 30.18 851 25.13 27.2 80.9 18 1.4 34.5
15:45 1022 30.18 851 25.13 27.6 81.6 18 1.2 34.1
15:50 1022 30.18 851 25.13 27 80.6 19 1.6 34.9
15:55 1022 30.18 851 25.13 27.5 81.4 18 1.3 34.3
16:00 1021 30.15 851 25.13 28 82.5 18 1.8 35.3
16:05 1021 30.15 851 25.13 27.2 80.9 18 1 33.9
16:10 1021 30.15 851 25.13 27 80.7 18 0.7 33.2
16:15 1021 30.15 851 25.13 26.6 80 18 0.3 32.6
16:20 1021 30.15 850 25.1 26.7 80 17 -0 32
16:25 1021 30.15 850 25.1 27.4 81.3 18 1.2 34.1
16:30 1021 30.15 850 25.1 28 82.5 15 -0.5 31.1
16:35 1021 30.15 850 25.1 28.5 83.3 15 -0.4 31.2
16:40 1021 30.15 850 25.1 27.8 82.1 17 0.5 33
16:45 1021 30.15 850 25.1 27.2 81 16 -0.8 30.6
16:50 1021 30.15 850 25.1 27.2 81 15 -1.2 29.9
16:55 1021 30.15 850 25.1 27.2 81 16 -0.8 30.6
17:00 1021 30.15 850 25.1 27.5 81.6 15 -1 30.3
17:05 1021 30.15 850 25.1 28.3 83 15 -0.8 30.5
17:10 1021 30.15 850 25.1 28.3 82.9 15 -0.9 30.4
17:15 1021 30.15 850 25.1 28 82.5 15 -0.4 31.3
17:20 1021 30.15 850 25.1 27.4 81.4 17 0.6 33
17:25 1021 30.15 850 25.1 27.3 81.2 17 0.4 32.7
17:30 1021 30.15 850 25.1 27.4 81.2 18 1.1 34.1
17:35 1021 30.15 850 25.1 27.3 81.1 17 0.3 32.5
17:40 1021 30.15 850 25.1 27.2 80.9 17 0.4 32.7
17:45 1021 30.15 850 25.1 26.4 79.4 20 1.9 35.4
17:50 1021 30.15 850 25.1 25.9 78.6 19 0.8 33.4
17:55 1021 30.15 850 25.1 25.8 78.4 21 2.3 36.1
18:00 1021 30.15 850 25.1 25.7 78.2 21 1.7 35
18:05 1021 30.15 850 25.1 25.6 78.1 20 1.4 34.5
18:10 1021 30.15 850 25.1 25.5 77.9 21 1.6 34.8
18:15 1021 30.15 850 25.1 25.2 77.4 21 1.7 35.1
18:20 1021 30.15 850 25.1 25.2 77.3 20 1.2 34.1
18:25 1021 30.15 850 25.1 25.1 77.2 21 1.3 34.3
18:30 1021 30.15 850 25.1 25.1 77.2 23 2.6 36.7
18:35 1021 30.15 850 25.1 25.1 77.3 22 2.4 36.3
18:40 1021 30.15 850 25.1 25 77.1 21 1.4 34.6
18:45 1021 30.15 850 25.1 25 77.1 19 0.2 32.4
18:50 1021 30.15 850 25.1 25.1 77.1 20 0.9 33.6
18:55 1021 30.15 850 25.1 25 76.9 23 2.7 36.9
19:00 1021 30.15 850 25.1 24.7 76.5 23 2.2 36
19:05 1021 30.15 850 25.1 24.4 76 22 1.5 34.6
19:10 1021 30.15 850 25.1 24.3 75.8 28 4.7 40.4
19:15 1021 30.15 850 25.1 23.9 75 32 6.6 43.9
19:20 1021 30.15 850 25.1 23.6 74.4 32 5.9 42.7
19:25 1021 30.15 850 25.1 23 73.4 31 5.4 41.7
19:30 1021 30.15 850 25.1 22.6 72.7 32 5.4 41.8
19:35 1021 30.15 850 25.1 22.5 72.4 32 5.3 41.5
19:40 1021 30.15 850 25.1 22 71.6 34 5.6 42
19:45 1021 30.15 850 25.1 21.6 70.9 34 5.3 41.5
19:50 1021 30.15 850 25.1 21.3 70.3 33 4.5 40.2
19:55 1021 30.15 850 25.1 21.1 69.9 32 4 39.3
20:00 1021 30.15 850 25.1 20.9 69.6 35 4.9 40.8
20:05 1021 30.15 850 25.1 20.5 68.9 39 6.3 43.3
20:10 1021 30.15 850 25.1 19.4 66.9 40 5.8 42.4
20:15 1021 30.15 850 25.1 19.2 66.5 35 3.7 38.7
20:20 1021 30.15 850 25.1 19.5 67 34 3.2 37.8
20:25 1021 30.15 850 25.1 19.5 67.1 32 2.3 36.2
20:30 1021 30.15 850 25.1 19.8 67.6 32 2.7 36.9
20:35 1021 30.15 850 25.1 19.5 67.1 32 2.4 36.3
20:40 1021 30.15 850 25.1 19.3 66.7 32 2.1 35.9
20:45 1021 30.15 850 25.1 19.5 67.1 31 2.1 35.7
20:50 1021 30.15 850 25.1 19.3 66.8 31 2.1 35.8
20:55 1021 30.15 850 25.1 19.3 66.8 31 1.9 35.4
21:00 1021 30.15 850 25.1 19.5 67 29 1.3 34.4
21:05 1021 30.15 850 25.1 20 68 29 1.6 34.8
21:10 1021 30.15 850 25.1 19.9 67.8 31 2.5 36.6
21:15 1021 30.15 850 25.1 19.2 66.6 32 2.1 35.8
21:20 1021 30.15 850 25.1 19.2 66.5 31 1.8 35.2
21:25 1021 30.15 850 25.1 19.1 66.3 33 2.5 36.4
21:30 1021 30.15 850 25.1 18.4 65.1 35 2.9 37.2
21:35 1021 30.15 850 25.1 17.9 64.2 36 2.9 37.2
21:40 1021 30.15 850 25.1 17.7 63.9 36 2.6 36.6
21:45 1021 30.15 850 25.1 17.6 63.7 37 2.9 37.3
21:50 1021 30.15 850 25.1 17.5 63.4 36 2.5 36.5
21:55 1021 30.15 850 25.1 17.5 63.6 36 2.3 36.2
22:00 1021 30.15 850 25.1 17.7 63.9 36 2.4 36.3
22:05 1021 30.15 850 25.1 17.8 64.1 35 2.4 36.3
22:10 1021 30.15 850 25.1 17.8 64 35 2.2 35.9
22:15 1021 30.15 850 25.1 17.9 64.2 35 2.4 36.4
22:20 1021 30.15 850 25.1 17.9 64.1 34 2 35.5
22:25 1021 30.15 850 25.1 17.9 64.2 35 2.4 36.3
22:30 1021 30.15 850 25.1 17.8 64 35 2.4 36.3
22:35 1021 30.15 850 25.1 17.8 64 35 2.3 36.1
22:40 1021 30.15 850 25.1 17.9 64.3 36 2.7 36.9
22:45 1021 30.15 850 25.1 17.7 63.9 35 2.2 35.9
22:50 1021 30.15 850 25.1 17.9 64.2 34 1.9 35.4
22:55 1021 30.15 850 25.1 17.9 64.3 34 2.2 35.9
23:00 1021 30.15 850 25.1 17.8 64 35 2.4 36.3
23:05 1021 30.15 850 25.1 17.5 63.4 36 2.3 36.2
23:10 1021 30.15 850 25.1 17.2 63 36 2.2 36
23:15 1021 30.15 850 25.1 17.3 63.2 36 2.2 36
23:20 1021 30.15 850 25.1 17.3 63.1 36 2.4 36.2
23:25 1021 30.15 850 25.1 17.1 62.8 36 2.2 35.9
23:30 1021 30.15 850 25.1 17.1 62.8 37 2.6 36.7
23:35 1021 30.15 850 25.1 17.2 62.9 37 2.4 36.3
23:40 1021 30.15 850 25.1 17.1 62.9 37 2.5 36.6
23:45 1021 30.15 850 25.1 17.1 62.8 39 3.1 37.7
23:50 1021 30.15 850 25.1 17.2 62.9 40 3.4 38.2
23:55 1021 30.15 850 25.1 17.3 63.1 38 2.8 37.1
24:00 1021 30.15 850 25.1 17.4 63.4 37 2.6 36.7